Terminal Aerodrome Forecast
Issued by NWS

Home | Current Version | Previous Version | Graphics & Text | Print | Product List | Glossary On
Versions: 1 2 3 4 5 6 7 8 9 10 11 12
000
FTUS45 KGGW 250520
TAFSDY
TAF
KSDY 250520Z 2506/2606 VRB04KT P6SM FEW200
     FM251800 15011KT P6SM SCT150
     FM260100 VRB03KT P6SM FEW150
      AMD LTD TO CLD VIS AND WIND=

USA.gov is the U.S. government's official web portal to all federal, state and local government web resources and services.